Time;durP1;ratioP1;P1;durP2;ratioP2;P2;SDS_P1;SDS_P2;PMS_P1;PMS_P2;Temp;Humidity;BMP_temperature;BMP_pressure;BME280_temperature;BME280_humidity;BME280_pressure;Samples;Min_cycle;Max_cycle;Signal;HPM_P1;HPM_P2
2021/05/27 00:01:43;;;;;;;16.08;6.55;;;;;;;10.32;89.75;101371.59;6460597;23;20091;-68
2021/05/27 00:04:14;;;;;;;15.50;6.90;;;;;;;10.33;89.78;101382.91;6459874;23;20005;-68
2021/05/27 00:06:45;;;;;;;11.95;5.88;;;;;;;10.34;89.65;101372.34;6564811;22;20004;-68
2021/05/27 00:09:16;;;;;;;13.40;6.78;;;;;;;10.34;89.55;101371.47;6460826;23;20368;-68
2021/05/27 00:11:48;;;;;;;12.93;6.85;;;;;;;10.35;89.30;101379.25;6460408;23;20105;-67
2021/05/27 00:14:20;;;;;;;15.23;6.80;;;;;;;10.35;89.32;101381.03;6563995;22;20005;-68
2021/05/27 00:16:51;;;;;;;13.68;6.57;;;;;;;10.35;88.88;101376.63;6565898;22;20016;-68
2021/05/27 00:19:22;;;;;;;12.20;6.85;;;;;;;10.33;88.69;101378.50;6565176;22;20016;-68
2021/05/27 00:21:54;;;;;;;11.60;7.00;;;;;;;10.35;89.26;101381.84;6460248;23;20030;-68
2021/05/27 00:24:25;;;;;;;14.82;7.10;;;;;;;10.38;89.25;101391.25;6460194;23;20124;-68
2021/05/27 00:26:56;;;;;;;13.75;5.90;;;;;;;10.37;88.73;101393.03;6460051;23;20017;-68
2021/05/27 00:29:28;;;;;;;15.45;7.13;;;;;;;10.39;88.44;101398.19;6460810;23;20072;-68
2021/05/27 00:31:59;;;;;;;13.77;6.55;;;;;;;10.39;88.71;101398.19;6459212;23;20382;-68
2021/05/27 00:34:31;;;;;;;15.90;7.45;;;;;;;10.37;88.30;101400.91;6459615;22;20483;-68
2021/05/27 00:37:02;;;;;;;15.02;6.93;;;;;;;10.38;88.91;101397.34;6460270;23;20504;-68
2021/05/27 00:39:33;;;;;;;15.70;6.95;;;;;;;10.40;88.87;101402.47;6564535;22;20048;-67
2021/05/27 00:42:05;;;;;;;13.38;7.32;;;;;;;10.35;88.83;101394.97;6460133;23;20000;-68
2021/05/27 00:44:36;;;;;;;20.17;8.13;;;;;;;10.39;88.95;101401.63;6458608;22;20350;-68
2021/05/27 00:47:09;;;;;;;15.93;8.73;;;;;;;10.39;88.79;101403.41;6460457;23;20335;-68
2021/05/27 00:49:41;;;;;;;;;;;;;;;10.50;87.74;101405.25;6460933;22;20422;-68
2021/05/27 00:52:12;;;;;;;20.97;9.63;;;;;;;10.38;88.07;101404.34;6460507;23;19904;-68
2021/05/27 00:54:44;;;;;;;21.27;9.82;;;;;;;10.35;88.55;101402.81;6459765;23;20630;-67
2021/05/27 00:57:30;;;;;;;16.73;9.35;;;;;;;10.35;88.47;101402.81;6459248;23;20036;-68
2021/05/27 01:00:10;;;;;;;17.58;9.45;;;;;;;10.33;88.25;101398.63;6460840;22;20488;-68
2021/05/27 01:02:42;;;;;;;14.98;9.13;;;;;;;10.27;87.97;101391.25;6459823;22;20017;-67
2021/05/27 01:05:15;;;;;;;15.98;8.68;;;;;;;10.26;87.64;101398.25;6459105;23;20436;-68
2021/05/27 01:07:46;;;;;;;14.25;8.07;;;;;;;10.26;87.02;101393.00;6460514;22;20008;-67
2021/05/27 01:10:18;;;;;;;12.90;8.48;;;;;;;10.26;87.10;101397.41;6460412;23;20054;-68
2021/05/27 01:12:49;;;;;;;15.55;8.68;;;;;;;10.26;87.22;101395.63;6459966;23;20382;-67
2021/05/27 01:18:23;;;;;;;15.30;7.93;;;;;;;10.25;86.60;101412.28;6468648;22;20023;-67
2021/05/27 01:20:56;;;;;;;17.17;8.98;;;;;;;10.25;85.91;101409.69;6460116;23;20367;-68
2021/05/27 01:23:29;;;;;;;13.32;7.47;;;;;;;10.25;86.43;101409.69;6458867;22;20385;-68
2021/05/27 01:26:01;;;;;;;;;;;;;;;10.39;85.61;101411.28;6460464;23;20347;-68
2021/05/27 01:28:35;;;;;;;14.85;9.25;;;;;;;10.22;85.96;101420.34;6460280;23;19947;-67
2021/05/27 01:31:07;;;;;;;;;;;;;;;10.37;85.22;101427.09;6461506;22;20035;-68
2021/05/27 01:33:38;;;;;;;15.15;8.40;;;;;;;10.24;85.77;101431.56;6458814;22;19907;-67
2021/05/27 01:36:09;;;;;;;15.95;9.18;;;;;;;10.21;85.99;101426.53;6563890;22;20001;-67
2021/05/27 01:38:41;;;;;;;15.32;8.77;;;;;;;10.20;85.69;101425.72;6458558;23;20012;-68
2021/05/27 01:41:12;;;;;;;15.82;8.48;;;;;;;10.21;86.00;101426.53;6460697;23;20054;-68
2021/05/27 01:43:43;;;;;;;17.52;9.73;;;;;;;10.21;86.30;101429.97;6458375;23;20461;-68
2021/05/27 01:46:15;;;;;;;19.35;10.13;;;;;;;10.18;86.35;101427.59;6459542;23;20316;-68
2021/05/27 01:48:46;;;;;;;22.33;9.82;;;;;;;10.20;86.28;101430.13;6459901;22;20001;-67
2021/05/27 01:51:17;;;;;;;17.85;9.98;;;;;;;10.20;86.13;101427.50;6460025;23;20039;-68
2021/05/27 01:53:48;;;;;;;20.80;10.43;;;;;;;10.19;86.00;101428.41;6459339;23;20081;-67
2021/05/27 01:56:20;;;;;;;17.00;9.50;;;;;;;10.12;86.26;101422.00;6460140;22;19997;-68
2021/05/27 01:58:51;;;;;;;18.40;11.00;;;;;;;10.19;85.39;101431.91;6459759;23;20382;-68
2021/05/27 02:01:22;;;;;;;20.85;11.55;;;;;;;10.17;85.61;101433.78;6458586;22;20831;-68
2021/05/27 02:03:53;;;;;;;18.73;11.50;;;;;;;10.19;84.78;101439.75;6459910;23;20498;-68
2021/05/27 02:06:25;;;;;;;22.58;11.30;;;;;;;10.11;84.31;101436.84;6457684;23;20107;-68
2021/05/27 02:09:11;;;;;;;25.80;12.68;;;;;;;10.14;84.58;101439.22;6459276;23;20004;-68
2021/05/27 02:11:45;;;;;;;17.08;11.45;;;;;;;10.11;84.80;101436.00;6460040;23;20008;-68
2021/05/27 02:14:19;;;;;;;21.75;12.32;;;;;;;10.09;84.89;101438.75;6459146;23;20001;-68
2021/05/27 02:16:51;;;;;;;19.02;11.57;;;;;;;10.06;84.37;101431.13;6459751;23;20001;-68
2021/05/27 02:19:22;;;;;;;18.48;11.50;;;;;;;10.07;83.82;101431.94;6459079;22;20015;-68
2021/05/27 02:21:53;;;;;;;18.33;12.18;;;;;;;10.07;83.66;101445.03;6460263;23;20351;-68
2021/05/27 02:24:25;;;;;;;16.63;10.35;;;;;;;10.06;84.07;101438.97;6458546;22;20011;-68
2021/05/27 02:26:56;;;;;;;24.38;11.18;;;;;;;9.90;83.80;101412.25;6451526;22;20370;-66
2021/05/27 02:29:27;;;;;;;16.50;10.98;;;;;;;10.02;83.45;101437.53;6387790;23;20026;-67
2021/05/27 02:31:58;;;;;;;20.75;11.30;;;;;;;9.96;83.19;101428.34;6389307;23;20348;-66
2021/05/27 02:34:30;;;;;;;19.27;10.52;;;;;;;10.01;82.97;101445.50;6395152;23;20059;-66
2021/05/27 02:37:01;;;;;;;21.02;11.52;;;;;;;9.98;83.27;101446.53;6399068;23;20008;-66
2021/05/27 02:39:33;;;;;;;15.25;10.25;;;;;;;9.97;83.31;101444.88;6426922;22;20012;-68
2021/05/27 02:42:05;;;;;;;18.88;10.75;;;;;;;9.98;82.90;101455.22;6428060;23;20416;-68
2021/05/27 02:44:36;;;;;;;17.80;10.63;;;;;;;9.95;83.01;101458.06;6428162;23;20001;-67
2021/05/27 02:47:08;;;;;;;22.67;11.02;;;;;;;9.91;83.44;101459.22;6402882;23;20036;-67
2021/05/27 02:49:39;;;;;;;18.13;10.93;;;;;;;9.89;83.07;101450.69;6428111;23;20016;-66
2021/05/27 02:52:10;;;;;;;16.33;9.80;;;;;;;9.90;82.93;101460.19;6427936;23;20005;-66
2021/05/27 02:54:41;;;;;;;16.27;9.63;;;;;;;9.88;82.17;101458.63;6429215;23;20001;-66
2021/05/27 02:57:13;;;;;;;17.77;9.68;;;;;;;9.88;82.46;101467.31;6427414;23;20508;-66
2021/05/27 02:59:44;;;;;;;18.65;9.77;;;;;;;9.86;82.34;101463.97;6430097;23;20482;-66
2021/05/27 03:02:15;;;;;;;17.20;9.18;;;;;;;9.84;82.03;101452.78;6430574;23;20504;-67
2021/05/27 03:04:46;;;;;;;17.10;9.75;;;;;;;9.83;82.29;101463.34;6429230;23;20483;-66
2021/05/27 03:07:18;;;;;;;19.45;9.55;;;;;;;9.82;82.64;101457.28;6429912;23;20351;-66
2021/05/27 03:09:49;;;;;;;15.35;9.10;;;;;;;9.82;82.44;101457.28;6429971;23;20001;-67
2021/05/27 03:12:20;;;;;;;15.77;8.88;;;;;;;9.81;82.38;101457.38;6429325;23;20101;-66
2021/05/27 03:14:51;;;;;;;16.67;9.00;;;;;;;9.82;82.72;101459.09;6430182;23;20001;-66
2021/05/27 03:17:23;;;;;;;14.70;8.07;;;;;;;9.80;81.98;101463.56;6429943;23;20084;-66
2021/05/27 03:19:54;;;;;;;17.33;9.63;;;;;;;9.80;81.45;101460.97;6430045;23;20005;-66
2021/05/27 03:22:26;;;;;;;15.68;8.38;;;;;;;9.75;81.85;101463.91;6430163;23;20009;-66
2021/05/27 03:24:57;;;;;;;13.93;8.30;;;;;;;9.74;82.16;101465.69;6428391;23;20004;-68
2021/05/27 03:27:28;;;;;;;15.63;8.57;;;;;;;9.74;81.94;101470.09;6429331;23;20021;-66
2021/05/27 03:30:00;;;;;;;21.02;9.10;;;;;;;9.73;81.95;101471.84;6430465;23;20084;-67
2021/05/27 03:32:31;;;;;;;17.52;8.50;;;;;;;9.67;81.91;101468.84;6428539;23;20075;-66
2021/05/27 03:35:03;;;;;;;14.30;8.43;;;;;;;9.70;81.86;101479.09;6428900;23;20001;-67
2021/05/27 03:37:35;;;;;;;21.48;8.95;;;;;;;9.67;81.90;101477.53;6429149;23;20072;-66
2021/05/27 03:42:45;;;;;;;23.63;9.48;;;;;;;9.68;82.73;101481.81;6440198;23;20019;-66
2021/05/27 03:45:30;;;;;;;15.73;8.13;;;;;;;9.72;82.78;101485.06;6429253;23;20009;-67
2021/05/27 03:48:02;;;;;;;16.58;9.32;;;;;;;9.65;82.65;101487.25;6430189;23;20005;-67
2021/05/27 03:50:34;;;;;;;14.60;8.13;;;;;;;9.69;82.23;101490.50;6430044;23;20009;-67
2021/05/27 03:53:07;;;;;;;17.75;8.77;;;;;;;9.65;83.00;101484.66;6429081;23;20013;-66
2021/05/27 03:55:38;;;;;;;18.88;8.40;;;;;;;9.65;83.07;101486.44;6429761;23;20436;-67
2021/05/27 04:00:59;;;;;;;17.60;8.63;;;;;;;9.66;82.58;101494.19;6426344;23;20012;-66
2021/05/27 04:07:07;;;;;;;19.13;8.50;;;;;;;9.67;82.56;101484.56;6428114;23;20001;-67
2021/05/27 04:09:12;;;;;;;15.90;7.97;;;;;;;9.66;82.68;101491.56;6429348;23;20013;-66
2021/05/27 04:11:44;;;;;;;15.93;7.68;;;;;;;9.63;83.29;101493.56;6429376;23;20084;-67
2021/05/27 04:14:15;;;;;;;21.40;9.73;;;;;;;9.61;82.58;101492.81;6428646;23;20001;-66
2021/05/27 04:16:46;;;;;;;16.60;9.00;;;;;;;9.63;82.68;101493.56;6429820;23;20016;-66
2021/05/27 04:19:18;;;;;;;19.67;8.88;;;;;;;9.63;83.33;101489.16;6430048;23;20072;-66
2021/05/27 04:21:49;;;;;;;17.60;8.05;;;;;;;9.63;82.64;101493.56;6429071;23;20343;-67
2021/05/27 04:24:20;;;;;;;22.42;9.45;;;;;;;9.62;82.83;101489.25;6429236;23;20043;-67
2021/05/27 04:26:51;;;;;;;22.73;10.07;;;;;;;9.63;83.02;101489.16;6429065;23;20066;-67
2021/05/27 04:29:23;;;;;;;15.52;8.13;;;;;;;9.61;83.14;101490.22;6428881;23;20263;-67
2021/05/27 04:31:54;;;;;;;16.95;8.32;;;;;;;9.61;83.27;101491.03;6430054;23;20009;-67
2021/05/27 04:34:28;;;;;;;16.25;8.60;;;;;;;9.63;83.56;101494.41;6429086;23;20005;-66
2021/05/27 04:37:00;;;;;;;16.50;8.20;;;;;;;9.59;83.96;101498.19;6428238;23;20447;-67
2021/05/27 04:39:31;;;;;;;16.58;8.38;;;;;;;9.61;83.72;101491.03;6430195;23;20139;-67
2021/05/27 04:42:02;;;;;;;19.90;8.00;;;;;;;9.60;83.74;101496.41;6428534;23;20005;-66
2021/05/27 04:44:34;;;;;;;14.93;7.20;;;;;;;9.58;84.08;101495.66;6402522;23;20005;-67
2021/05/27 04:47:05;;;;;;;17.08;8.35;;;;;;;9.59;84.12;101505.19;6428588;23;20084;-66
2021/05/27 04:49:36;;;;;;;20.55;8.07;;;;;;;9.59;84.62;101499.97;6429506;23;20013;-66
2021/05/27 04:52:07;;;;;;;13.88;7.13;;;;;;;9.57;84.34;101502.66;6430344;23;20005;-67
2021/05/27 04:54:39;;;;;;;15.55;7.45;;;;;;;9.58;84.21;101512.19;6429515;23;20000;-66
2021/05/27 04:57:10;;;;;;;18.08;7.63;;;;;;;9.56;84.57;101501.00;6425718;23;20411;-67
2021/05/27 04:59:41;;;;;;;16.98;7.70;;;;;;;9.57;84.99;101509.69;6429534;23;20339;-67
2021/05/27 05:02:13;;;;;;;15.07;7.55;;;;;;;9.56;84.71;101503.63;6430084;23;20092;-66
2021/05/27 05:04:44;;;;;;;17.92;8.60;;;;;;;9.58;84.57;101516.56;6429065;23;20031;-67
2021/05/27 05:07:16;;;;;;;16.88;8.20;;;;;;;9.56;85.16;101516.69;6429114;23;20471;-66
2021/05/27 05:09:48;;;;;;;16.00;7.67;;;;;;;9.58;85.53;101521.81;6428758;23;20484;-66
2021/05/27 05:12:19;;;;;;;22.75;8.60;;;;;;;9.57;85.38;101518.38;6403081;23;20241;-66
2021/05/27 05:14:50;;;;;;;16.20;7.80;;;;;;;9.56;85.65;101526.31;6429121;23;20088;-66
2021/05/27 05:17:22;;;;;;;18.00;7.63;;;;;;;9.56;85.64;101523.72;6428882;23;20005;-68
2021/05/27 05:19:53;;;;;;;18.50;8.30;;;;;;;9.54;86.26;101521.19;6428890;23;20070;-66
2021/05/27 05:22:24;;;;;;;19.23;7.22;;;;;;;9.56;86.49;101519.31;6429569;23;20012;-66
2021/05/27 05:24:56;;;;;;;16.83;8.30;;;;;;;9.58;86.42;101521.81;6428687;23;20013;-66
2021/05/27 05:27:28;;;;;;;20.30;7.83;;;;;;;9.59;85.79;101523.50;6428687;23;20024;-66
2021/05/27 05:30:00;;;;;;;17.75;8.85;;;;;;;9.57;85.68;101535.84;6429347;23;20348;-67
2021/05/27 05:32:31;;;;;;;15.05;7.15;;;;;;;9.55;85.49;101530.72;6428910;23;20005;-66
2021/05/27 05:35:05;;;;;;;17.60;7.30;;;;;;;9.58;86.04;101524.44;6429657;23;20005;-67
2021/05/27 05:37:37;;;;;;;17.67;7.78;;;;;;;9.57;86.11;101525.38;6428974;23;20387;-65
2021/05/27 05:40:10;;;;;;;15.90;7.15;;;;;;;9.59;86.67;101532.19;6402585;23;20052;-66
2021/05/27 05:42:42;;;;;;;18.40;7.35;;;;;;;9.60;86.42;101531.22;6427623;23;20013;-66
2021/05/27 05:45:15;;;;;;;17.33;7.55;;;;;;;9.59;86.38;101528.75;6429546;23;20076;-66
2021/05/27 05:47:49;;;;;;;17.02;6.55;;;;;;;9.54;86.29;101520.34;6428271;23;20075;-66
2021/05/27 05:53:12;;;;;;;18.20;7.97;;;;;;;9.68;85.81;101536.75;6428502;23;19951;-66
2021/05/27 05:55:44;;;;;;;16.60;7.60;;;;;;;9.70;86.54;101539.28;6429069;23;19997;-66
2021/05/27 05:58:15;;;;;;;16.52;7.38;;;;;;;9.68;86.82;101539.38;6429071;23;20009;-66
2021/05/27 06:00:48;;;;;;;16.30;7.50;;;;;;;9.71;86.82;101548.81;6424882;23;20040;-66
2021/05/27 06:03:19;;;;;;;19.90;7.43;;;;;;;9.72;86.43;101548.69;6419012;23;20005;-66
2021/05/27 06:05:50;;;;;;;18.02;8.38;;;;;;;9.72;86.48;101547.84;6427557;23;20443;-67
2021/05/27 06:08:22;;;;;;;12.77;7.45;;;;;;;9.74;86.08;101556.44;6427776;23;20032;-66
2021/05/27 06:10:53;;;;;;;17.27;8.02;;;;;;;9.72;86.21;101555.69;6427982;23;20013;-65
2021/05/27 06:13:24;;;;;;;17.88;7.55;;;;;;;9.74;86.74;101554.66;6428103;23;20005;-66
2021/05/27 06:15:56;;;;;;;20.25;7.88;;;;;;;9.80;86.84;101563.84;6417339;23;20339;-66
2021/05/27 06:18:27;;;;;;;16.70;7.30;;;;;;;9.83;87.25;101561.03;6428070;23;20482;-66
2021/05/27 06:20:58;;;;;;;15.48;7.88;;;;;;;9.85;87.26;101560.91;6428004;23;20422;-67
2021/05/27 06:23:30;;;;;;;19.60;7.80;;;;;;;9.84;86.10;101554.84;6426800;23;20036;-66
2021/05/27 06:26:01;;;;;;;19.98;8.60;;;;;;;9.85;87.24;101561.75;6428912;23;20001;-66
2021/05/27 06:28:32;;;;;;;16.70;7.50;;;;;;;9.84;85.97;101561.84;6428237;23;20013;-66
2021/05/27 06:31:04;;;;;;;16.40;7.82;;;;;;;9.79;86.71;101562.19;6428470;23;20009;-65
2021/05/27 06:33:36;;;;;;;16.55;7.65;;;;;;;9.85;86.95;101566.13;6429584;23;20008;-66
2021/05/27 06:36:08;;;;;;;17.70;7.27;;;;;;;9.85;86.93;101564.38;6428519;23;20015;-66
2021/05/27 06:38:39;;;;;;;16.60;8.50;;;;;;;9.85;87.79;101561.75;6430429;23;20084;-67
2021/05/27 06:41:10;;;;;;;18.02;8.43;;;;;;;9.89;87.49;101567.63;6430193;23;20031;-66
2021/05/27 06:43:42;;;;;;;17.15;8.63;;;;;;;9.87;87.64;101567.72;6428705;23;20301;-66
2021/05/27 06:46:13;;;;;;;20.77;9.23;;;;;;;9.88;87.61;101569.38;6428553;23;20005;-66
2021/05/27 06:48:45;;;;;;;18.30;7.82;;;;;;;9.93;88.14;101579.53;6403430;23;20028;-66
2021/05/27 06:51:16;;;;;;;19.80;8.43;;;;;;;9.92;87.35;101588.31;6428895;23;20009;-66
2021/05/27 06:53:47;;;;;;;22.83;8.95;;;;;;;9.90;86.87;101583.19;6429243;23;20001;-66
2021/05/27 06:56:19;;;;;;;18.58;8.68;;;;;;;9.87;87.18;101586.03;6421870;23;20001;-66
2021/05/27 06:58:50;;;;;;;13.55;8.10;;;;;;;9.93;87.39;101592.63;6424232;23;20173;-66
2021/05/27 07:01:22;;;;;;;16.23;7.70;;;;;;;9.96;87.43;101587.16;6428523;23;20005;-66
2021/05/27 07:03:54;;;;;;;17.33;8.68;;;;;;;9.91;88.06;101584.03;6426731;23;20009;-65
2021/05/27 07:06:25;;;;;;;18.02;8.50;;;;;;;9.91;87.84;101597.13;6428057;23;20369;-66
2021/05/27 07:08:56;;;;;;;24.15;8.40;;;;;;;9.89;87.32;101592.00;6402358;23;20384;-66
2021/05/27 07:11:28;;;;;;;18.65;7.82;;;;;;;9.88;86.40;101600.78;6428322;23;20377;-66
2021/05/27 07:13:59;;;;;;;14.30;7.50;;;;;;;9.90;86.99;101596.28;6428983;23;20104;-66
2021/05/27 07:16:30;;;;;;;17.58;7.00;;;;;;;9.89;86.88;101589.41;6426979;23;20448;-66
2021/05/27 07:19:05;;;;;;;20.60;7.40;;;;;;;9.97;86.76;101602.78;6428448;23;20001;-66
2021/05/27 07:21:36;;;;;;;18.60;7.40;;;;;;;10.00;86.80;101604.34;6428180;23;20001;-66
2021/05/27 07:24:07;;;;;;;13.45;7.60;;;;;;;10.08;87.41;101609.03;6428624;23;20491;-66
2021/05/27 07:26:38;;;;;;;12.70;6.90;;;;;;;10.08;86.70;101603.81;6428192;23;20072;-66
2021/05/27 07:29:10;;;;;;;14.73;6.85;;;;;;;10.07;86.19;101605.56;6427418;23;20013;-67
2021/05/27 07:31:41;;;;;;;20.88;8.70;;;;;;;10.14;87.48;101605.97;6428532;23;20009;-66
2021/05/27 07:34:12;;;;;;;17.60;7.25;;;;;;;10.13;86.27;101610.38;6428130;23;20058;-66
2021/05/27 07:36:44;;;;;;;12.82;6.40;;;;;;;10.12;85.87;101606.09;6429663;23;20128;-66
2021/05/27 07:39:15;;;;;;;17.73;6.90;;;;;;;10.12;86.61;101611.34;6427559;23;20344;-66
2021/05/27 07:41:46;;;;;;;17.77;6.78;;;;;;;10.10;85.91;101613.22;6427674;23;20015;-66
2021/05/27 07:44:18;;;;;;;14.07;7.05;;;;;;;10.12;86.65;101613.13;6402132;23;20012;-66
2021/05/27 07:46:49;;;;;;;17.52;7.15;;;;;;;10.12;86.16;101615.75;6427984;23;20039;-66
2021/05/27 07:49:21;;;;;;;22.85;7.85;;;;;;;10.12;86.38;101610.50;6427848;23;20001;-67
2021/05/27 07:51:54;;;;;;;15.40;7.65;;;;;;;10.17;86.93;101616.25;6428376;23;20116;-66
2021/05/27 07:54:26;;;;;;;17.60;7.27;;;;;;;10.21;85.80;101617.69;6428666;23;20001;-66
2021/05/27 07:56:57;;;;;;;16.65;7.65;;;;;;;10.27;85.79;101617.31;6428500;23;20077;-67
2021/05/27 07:59:28;;;;;;;16.58;7.40;;;;;;;10.31;84.96;101620.53;6429762;23;20087;-65
2021/05/27 08:02:00;;;;;;;19.50;8.05;;;;;;;10.30;84.80;101630.16;6428902;23;20005;-66
2021/05/27 08:04:32;;;;;;;14.05;7.68;;;;;;;10.34;85.23;101631.63;6428330;22;20005;-67
2021/05/27 08:07:03;;;;;;;19.50;7.60;;;;;;;10.36;83.91;101627.13;6429333;23;20016;-66
2021/05/27 08:09:34;;;;;;;16.95;8.25;;;;;;;10.36;83.75;101632.34;6428524;23;20457;-67
2021/05/27 08:12:07;;;;;;;20.10;8.00;;;;;;;10.40;85.11;101623.31;6427610;23;20013;-67
2021/05/27 08:14:38;;;;;;;17.42;7.90;;;;;;;10.42;84.80;101626.69;6427363;23;20432;-67
2021/05/27 08:17:09;;;;;;;16.38;7.10;;;;;;;10.48;85.18;101639.31;6424931;23;20011;-66
2021/05/27 08:19:40;;;;;;;15.65;8.15;;;;;;;10.50;85.11;101634.00;6427480;23;20005;-66
2021/05/27 08:22:14;;;;;;;12.63;7.32;;;;;;;10.52;84.57;101639.94;6427522;23;20464;-66
2021/05/27 08:24:46;;;;;;;19.35;8.77;;;;;;;10.54;84.00;101645.09;6428630;23;20017;-66
2021/05/27 08:27:17;;;;;;;19.75;9.25;;;;;;;10.53;82.65;101646.00;6426349;23;20024;-66
2021/05/27 08:29:48;;;;;;;17.45;10.63;;;;;;;10.53;83.29;101651.25;6427279;23;20443;-66
2021/05/27 08:32:20;;;;;;;20.50;9.57;;;;;;;10.44;82.18;101637.88;6399934;23;20341;-65
2021/05/27 08:34:51;;;;;;;15.27;9.23;;;;;;;10.48;82.31;101649.81;6427870;23;20356;-66
2021/05/27 08:37:23;;;;;;;18.20;9.32;;;;;;;10.47;82.85;101663.03;6428119;23;20009;-66
2021/05/27 08:39:54;;;;;;;16.88;9.27;;;;;;;10.43;82.47;101666.81;6419579;23;20009;-66
2021/05/27 08:42:26;;;;;;;19.25;9.68;;;;;;;10.40;83.33;101661.78;6421061;23;20088;-66
2021/05/27 08:44:58;;;;;;;19.13;9.57;;;;;;;10.44;84.33;101663.25;6427737;23;20005;-66
2021/05/27 08:47:30;;;;;;;20.45;11.00;;;;;;;10.50;84.84;101669.84;6428552;23;20005;-66
2021/05/27 08:50:04;;;;;;;17.25;10.10;;;;;;;10.56;85.21;101667.59;6427366;23;20012;-65
2021/05/27 08:52:35;;;;;;;19.65;9.77;;;;;;;10.53;83.32;101672.22;6427729;23;20004;-66
2021/05/27 08:55:07;;;;;;;17.02;10.65;;;;;;;10.51;84.20;101672.34;6425980;23;20085;-66
2021/05/27 08:57:39;;;;;;;21.45;11.40;;;;;;;10.58;84.08;101667.50;6427073;22;20035;-66
2021/05/27 09:00:11;;;;;;;19.23;11.20;;;;;;;10.63;83.21;101671.44;6428274;23;20035;-66
2021/05/27 09:02:52;;;;;;;20.08;10.73;;;;;;;10.69;82.71;101676.25;6429018;23;20012;-66
2021/05/27 09:05:24;;;;;;;20.13;9.98;;;;;;;10.65;83.47;101672.19;6427619;22;20037;-66
2021/05/27 09:07:56;;;;;;;19.20;9.73;;;;;;;10.66;83.27;101673.84;6427205;23;20525;-66
2021/05/27 09:10:48;;;;;;;16.67;9.35;;;;;;;10.75;83.10;101680.22;6400410;23;20038;-66
2021/05/27 09:13:22;;;;;;;15.90;9.88;;;;;;;10.67;82.90;101688.63;6400425;23;20404;-66
2021/05/27 09:16:11;;;;;;;20.58;9.85;;;;;;;10.72;83.52;101688.31;6428321;23;20432;-65
2021/05/27 09:18:43;;;;;;;16.75;10.27;;;;;;;10.59;82.27;101692.75;6428860;23;20013;-66
2021/05/27 09:21:16;;;;;;;17.05;10.85;;;;;;;10.62;83.34;101695.16;6428129;23;20043;-66
2021/05/27 09:23:50;;;;;;;17.48;11.30;;;;;;;10.62;84.08;101684.69;6428023;23;20009;-66
2021/05/27 09:26:21;;;;;;;19.83;10.60;;;;;;;10.60;83.16;101691.78;6424088;22;20020;-66
2021/05/27 09:29:09;;;;;;;18.95;10.27;;;;;;;10.71;84.36;101697.09;6427047;23;20025;-66
2021/05/27 09:31:58;;;;;;;17.25;9.80;;;;;;;10.80;82.73;101696.47;6426466;23;20004;-66
2021/05/27 09:34:51;;;;;;;17.77;9.75;;;;;;;10.87;83.43;101695.06;6426846;23;20495;-66
2021/05/27 09:37:31;;;;;;;15.60;9.48;;;;;;;10.92;82.47;101697.34;6428741;23;20092;-66
2021/05/27 09:40:06;;;;;;;16.73;11.65;;;;;;;11.10;84.03;101695.16;6423378;23;20016;-66
2021/05/27 09:42:48;;;;;;;17.70;11.07;;;;;;;11.26;82.85;101703.59;6427310;23;20011;-66
2021/05/27 09:45:20;;;;;;;17.15;10.90;;;;;;;11.34;81.76;101713.50;6427356;23;20335;-66
2021/05/27 09:47:51;;;;;;;16.75;10.52;;;;;;;11.32;80.10;101712.78;6429012;23;20005;-66
2021/05/27 09:50:31;;;;;;;19.67;11.52;;;;;;;11.34;81.67;101718.75;6427402;22;20688;-66
2021/05/27 09:53:14;;;;;;;16.27;8.95;;;;;;;11.33;80.63;101714.47;6401504;23;20001;-66
2021/05/27 09:55:46;;;;;;;17.20;10.07;;;;;;;11.31;80.59;101721.59;6426998;23;20009;-66
2021/05/27 09:58:17;;;;;;;19.23;10.32;;;;;;;11.39;81.37;101724.50;6427655;23;20058;-67
2021/05/27 10:00:49;;;;;;;14.85;9.32;;;;;;;11.43;79.21;101723.31;6427367;23;20058;-66
2021/05/27 10:03:30;;;;;;;17.73;8.88;;;;;;;11.45;78.27;101722.25;6428165;23;20001;-66
2021/05/27 10:06:04;;;;;;;16.88;8.88;;;;;;;11.47;78.68;101723.94;6426859;23;20322;-66
2021/05/27 10:08:56;;;;;;;14.63;7.57;;;;;;;11.58;78.86;101726.59;6424569;23;20100;-66
2021/05/27 10:11:27;;;;;;;15.07;7.68;;;;;;;11.45;78.62;101730.13;6423639;23;20009;-66
2021/05/27 10:14:00;;;;;;;15.02;8.63;;;;;;;11.49;79.57;101736.00;6427395;23;20473;-67
2021/05/27 10:16:31;;;;;;;15.15;10.35;;;;;;;11.47;78.77;101742.28;6425102;23;20069;-66
2021/05/27 10:19:03;;;;;;;17.52;12.05;;;;;;;11.44;78.65;101738.13;6423537;23;20025;-66
2021/05/27 10:21:37;;;;;;;18.08;11.05;;;;;;;11.34;78.14;101742.38;6426800;23;20005;-66
2021/05/27 10:24:09;;;;;;;19.05;11.30;;;;;;;11.25;78.78;101743.03;6425213;23;20440;-66
2021/05/27 10:26:43;;;;;;;16.10;10.45;;;;;;;11.22;79.61;101748.53;6399565;22;20012;-66
2021/05/27 10:29:14;;;;;;;17.15;11.00;;;;;;;11.18;80.52;101743.50;6425575;22;20013;-66
2021/05/27 10:31:47;;;;;;;20.48;10.30;;;;;;;11.38;79.95;101754.31;6427028;22;20027;-66
2021/05/27 10:34:55;;;;;;;15.43;10.18;;;;;;;11.67;79.76;101749.53;6427124;23;20001;-66
2021/05/27 10:37:38;;;;;;;18.52;9.38;;;;;;;11.93;79.71;101737.94;6425967;23;20055;-66
2021/05/27 10:40:18;;;;;;;15.93;9.15;;;;;;;11.98;78.90;101744.63;6423311;23;20013;-66
2021/05/27 10:42:56;;;;;;;16.70;9.77;;;;;;;11.90;78.70;101740.78;6427212;23;20019;-66
2021/05/27 10:45:29;;;;;;;18.25;9.63;;;;;;;11.87;78.76;101742.81;6426077;23;20009;-67
2021/05/27 10:48:12;;;;;;;17.58;11.15;;;;;;;11.84;77.53;101749.13;6426412;23;20447;-66
2021/05/27 10:53:51;;;;;;;18.67;12.40;;;;;;;11.91;78.53;101739.81;6424373;23;21122;-66
2021/05/27 10:56:34;;;;;;;17.65;11.45;;;;;;;11.93;78.23;101748.44;6425338;23;20378;-66
2021/05/27 10:59:11;;;;;;;18.45;10.52;;;;;;;11.85;77.70;101747.31;6421701;23;20032;-66
2021/05/27 11:01:42;;;;;;;16.95;10.32;;;;;;;11.86;77.23;101755.09;6423048;23;20489;-67
2021/05/27 11:04:34;;;;;;;14.73;11.13;;;;;;;11.85;78.17;101763.06;6425257;23;20001;-66
2021/05/27 11:07:08;;;;;;;17.50;11.25;;;;;;;11.75;76.82;101767.34;6423115;23;20248;-67
2021/05/27 11:09:41;;;;;;;14.52;9.48;;;;;;;11.71;77.04;101768.53;6425433;23;20013;-66
2021/05/27 11:12:16;;;;;;;15.48;10.25;;;;;;;11.62;76.37;101768.22;6425246;23;20005;-66
2021/05/27 11:14:50;;;;;;;16.02;9.80;;;;;;;11.53;77.30;101770.72;6417354;23;20123;-66
2021/05/27 11:17:27;;;;;;;15.07;10.93;;;;;;;11.61;78.07;101770.97;6425853;23;20015;-67
2021/05/27 11:20:14;;;;;;;19.15;11.55;;;;;;;11.64;77.00;101776.84;6428595;23;20024;-66
2021/05/27 11:22:54;;;;;;;15.95;11.18;;;;;;;11.77;75.90;101773.28;6425374;23;20505;-66
2021/05/27 11:25:29;;;;;;;22.73;13.10;;;;;;;11.76;75.15;101777.72;6426463;23;20470;-66
2021/05/27 11:28:01;;;;;;;17.60;11.60;;;;;;;11.84;76.17;101783.25;6428717;23;20121;-66
2021/05/27 11:30:39;;;;;;;17.60;12.43;;;;;;;11.83;75.64;101781.59;6400689;23;20012;-67
2021/05/27 11:33:21;;;;;;;19.52;13.10;;;;;;;11.87;76.39;101782.19;6426800;23;20005;-67
2021/05/27 11:35:57;;;;;;;13.68;11.55;;;;;;;11.81;75.50;101787.84;6428249;23;20005;-66
2021/05/27 11:38:32;;;;;;;19.55;13.02;;;;;;;11.73;74.94;101788.44;6422136;23;20019;-67
2021/05/27 11:41:17;;;;;;;21.33;13.27;;;;;;;11.67;76.05;101787.13;6424842;23;20005;-67
2021/05/27 11:43:50;;;;;;;23.63;12.63;;;;;;;11.61;76.11;101791.97;6427779;23;20009;-67
2021/05/27 11:46:25;;;;;;;19.92;13.75;;;;;;;11.63;77.57;101798.78;6427082;22;20377;-67
2021/05/27 11:48:58;;;;;;;21.08;12.73;;;;;;;11.67;76.67;101796.78;6426630;23;20012;-67
2021/05/27 11:51:37;;;;;;;20.50;12.75;;;;;;;11.72;76.09;101793.81;6426965;23;20084;-67
2021/05/27 11:54:10;;;;;;;23.20;12.05;;;;;;;11.67;76.66;101797.63;6425577;23;20090;-67
2021/05/27 11:56:44;;;;;;;23.05;12.23;;;;;;;11.74;76.99;101802.38;6422745;23;20050;-66
2021/05/27 11:59:25;;;;;;;21.98;11.70;;;;;;;11.79;76.56;101801.13;6399942;23;20439;-66
2021/05/27 12:02:00;;;;;;;21.08;11.35;;;;;;;11.86;75.84;101799.75;6427750;23;20016;-67
2021/05/27 12:04:33;;;;;;;18.98;11.32;;;;;;;12.07;76.74;101793.81;6427067;23;20050;-67